White, South Dakota
Current Conditions -  °F | °C
As of 1:13 AM on Saturday 25 Oct 2014 (Local Time) from KCNB Reporting Station
Clear Clear  
Wind Chill: 58°   Ceiling: Unl
Heat Index: 58°   Visibility: 10mi
Dew Point: 40°   Wind: 8mph
Humidity: 51%   Direction: 300°WNW
Pressure: 30.02"   Gusts: NA
Location:  44.43°N, 96.65°W
Report Text: KCNB 250613Z AUTO 30007KT 10SM CLR 15/04 A3002 RMK AO2 T01450044
Loading
Personal Weather Stations






























Interactive Weather Map
Tropical Storm Tracking
New forecast layout! Learn more

10-Day Weather Forecast

Advertisements
Track Severe Weather on mobile